createdAt,value
2016-08-05T00:00:49.228Z,0
2016-08-05T00:01:48.523Z,0
2016-08-05T00:02:49.380Z,0
2016-08-05T00:03:49.309Z,0
2016-08-05T00:04:48.572Z,0
2016-08-05T00:05:48.600Z,0
2016-08-05T00:06:48.632Z,0
2016-08-05T00:07:48.002Z,0
2016-08-05T00:08:47.252Z,0
2016-08-05T00:09:48.681Z,0
2016-08-05T00:10:49.389Z,0
2016-08-05T00:11:49.407Z,0
2016-08-05T00:12:48.848Z,0
2016-08-05T00:13:49.482Z,0
2016-08-05T00:14:48.834Z,0
2016-08-05T00:15:49.509Z,0
2016-08-05T00:16:48.872Z,0
2016-08-05T00:17:48.839Z,0
2016-08-05T00:18:48.894Z,0
2016-08-05T00:20:48.911Z,0
2016-08-05T00:21:49.641Z,0
2016-08-05T00:22:48.963Z,0
2016-08-05T00:23:48.991Z,0
2016-08-05T00:24:48.990Z,0
2016-08-05T00:25:49.031Z,0
2016-08-05T00:26:49.741Z,0
2016-08-05T00:27:49.036Z,0
2016-08-05T00:28:48.355Z,0
2016-08-05T00:29:49.138Z,0
2016-08-05T00:30:49.820Z,0
2016-08-05T00:31:48.420Z,0
2016-08-05T00:32:49.167Z,0
2016-08-05T00:33:49.951Z,0
2016-08-05T00:34:48.513Z,0
2016-08-05T00:35:48.515Z,0
2016-08-05T00:36:49.238Z,0
2016-08-05T00:37:49.263Z,0
2016-08-05T00:38:49.283Z,0
2016-08-05T00:39:49.311Z,0
2016-08-05T00:40:48.628Z,0
2016-08-05T00:41:50.066Z,0
2016-08-05T00:42:48.737Z,0
2016-08-05T00:43:50.082Z,0
2016-08-05T00:44:49.416Z,0
2016-08-05T00:45:48.780Z,0
2016-08-05T00:46:50.151Z,0
2016-08-05T00:47:48.761Z,0
2016-08-05T00:48:49.491Z,0
2016-08-05T00:49:48.082Z,0
2016-08-05T00:50:49.522Z,0
2016-08-05T00:51:49.699Z,0
2016-08-05T00:52:48.861Z,0
2016-08-05T00:53:49.603Z,0
2016-08-05T00:54:49.612Z,0
2016-08-05T00:55:49.635Z,0
2016-08-05T00:56:49.665Z,0
2016-08-05T00:57:48.954Z,0
2016-08-05T00:58:49.695Z,0
2016-08-05T00:59:49.717Z,0
2016-08-05T01:00:49.867Z,0
2016-08-05T01:01:49.743Z,0
2016-08-05T01:02:49.043Z,0
2016-08-05T01:03:50.518Z,0
2016-08-05T01:04:49.816Z,0
2016-08-05T01:05:50.551Z,0
2016-08-05T01:06:49.961Z,0
2016-08-05T01:07:50.596Z,0
2016-08-05T01:08:49.898Z,0
2016-08-05T01:09:49.907Z,0
2016-08-05T01:10:48.524Z,0
2016-08-05T01:11:49.954Z,0
2016-08-05T01:12:49.278Z,0
2016-08-05T01:13:49.991Z,0
2016-08-05T01:14:50.729Z,0
2016-08-05T01:15:50.777Z,0
2016-08-05T01:16:48.654Z,0
2016-08-05T01:17:50.833Z,0
2016-08-05T01:18:49.442Z,0
2016-08-05T01:19:50.113Z,0
2016-08-05T01:20:49.523Z,0
2016-08-05T01:21:48.745Z,0
2016-08-05T01:22:50.873Z,0
2016-08-05T01:23:50.195Z,0
2016-08-05T01:24:49.523Z,0
2016-08-05T01:25:50.222Z,0
2016-08-05T01:26:48.834Z,0
2016-08-05T01:27:50.287Z,0
2016-08-05T01:28:51.163Z,0
2016-08-05T01:29:50.333Z,0
2016-08-05T01:30:51.133Z,0
2016-08-05T01:31:51.053Z,0
2016-08-05T01:32:50.454Z,0
2016-08-05T01:33:49.754Z,0
2016-08-05T01:34:49.704Z,0
2016-08-05T01:35:49.023Z,0
2016-08-05T01:36:51.211Z,0
2016-08-05T01:37:51.206Z,0
2016-08-05T01:38:50.581Z,0
2016-08-05T01:39:51.453Z,0
2016-08-05T01:40:50.547Z,0
2016-08-05T01:41:51.297Z,0
2016-08-05T01:42:50.591Z,0
2016-08-05T01:43:49.185Z,0
2016-08-05T01:44:51.314Z,0
2016-08-05T01:45:50.743Z,0
2016-08-05T01:46:50.193Z,0
2016-08-05T01:47:50.689Z,0
2016-08-05T01:48:51.413Z,0
2016-08-05T01:49:50.716Z,0
2016-08-05T01:50:51.443Z,0
2016-08-05T01:51:50.760Z,0
2016-08-05T01:52:50.871Z,0
2016-08-05T01:53:51.535Z,0
2016-08-05T01:54:50.856Z,0
2016-08-05T01:55:50.844Z,0
2016-08-05T01:56:50.173Z,0
2016-08-05T01:57:50.881Z,0
2016-08-05T01:58:49.478Z,0
2016-08-05T01:59:50.215Z,0
2016-08-05T02:00:50.959Z,0
2016-08-05T02:01:50.261Z,0
2016-08-05T02:02:50.970Z,0
2016-08-05T02:03:50.297Z,0
2016-08-05T02:04:51.029Z,0
2016-08-05T02:05:51.135Z,0
2016-08-05T02:06:50.339Z,0
2016-08-05T02:07:50.365Z,0
2016-08-05T02:08:50.414Z,0
2016-08-05T02:09:50.442Z,0
2016-08-05T02:10:51.845Z,0
2016-08-05T02:11:51.186Z,0
2016-08-05T02:12:51.203Z,0
2016-08-05T02:13:50.519Z,0
2016-08-05T02:14:51.233Z,0
2016-08-05T02:15:51.235Z,0
2016-08-05T02:16:51.272Z,0
2016-08-05T02:17:50.584Z,0
2016-08-05T02:18:50.613Z,0
2016-08-05T02:19:50.946Z,0
2016-08-05T02:20:51.350Z,0
2016-08-05T02:21:51.361Z,0
2016-08-05T02:22:50.685Z,0
2016-08-05T02:23:51.395Z,0
2016-08-05T02:24:52.142Z,0
2016-08-05T02:25:52.175Z,0
2016-08-05T02:26:51.471Z,0
2016-08-05T02:27:51.555Z,0
2016-08-05T02:28:52.225Z,0
2016-08-05T02:29:51.524Z,0
2016-08-05T02:30:52.253Z,0
2016-08-05T02:31:51.655Z,0
2016-08-05T02:32:51.580Z,0
2016-08-05T02:33:51.633Z,0
2016-08-05T02:34:50.916Z,0
2016-08-05T02:35:51.640Z,0
2016-08-05T02:36:51.653Z,0
2016-08-05T02:37:50.994Z,0
2016-08-05T02:38:51.696Z,0
2016-08-05T02:39:51.726Z,0
2016-08-05T02:40:51.755Z,0
2016-08-05T02:41:52.453Z,0
2016-08-05T02:42:51.074Z,0
2016-08-05T02:43:51.794Z,0
2016-08-05T02:44:51.844Z,0
2016-08-05T02:45:51.143Z,0
2016-08-05T02:46:51.896Z,0
2016-08-05T02:47:51.263Z,0
2016-08-05T02:48:51.903Z,0
2016-08-05T02:49:52.615Z,0
2016-08-05T02:50:51.234Z,0
2016-08-05T02:51:51.965Z,0
2016-08-05T02:52:51.276Z,0
2016-08-05T02:53:51.351Z,0
2016-08-05T02:54:51.301Z,0
2016-08-05T02:55:51.421Z,0
2016-08-05T02:56:52.040Z,0
2016-08-05T02:57:51.374Z,0
2016-08-05T02:58:52.805Z,0
2016-08-05T02:59:52.118Z,0
2016-08-05T03:00:51.811Z,0
2016-08-05T03:01:51.608Z,0
2016-08-05T03:02:50.985Z,0
2016-08-05T03:03:51.635Z,0
2016-08-05T03:04:51.853Z,0
2016-08-05T03:05:52.343Z,0
2016-08-05T03:06:52.605Z,0
2016-08-05T03:07:52.365Z,4
2016-08-05T03:08:52.535Z,4
2016-08-05T03:09:51.672Z,4
2016-08-05T03:10:51.174Z,0
2016-08-05T03:11:51.703Z,4
2016-08-05T03:12:51.673Z,4
2016-08-05T03:13:50.981Z,8
2016-08-05T03:14:51.933Z,4
2016-08-05T03:15:51.734Z,8
2016-08-05T03:16:51.838Z,8
2016-08-05T03:17:51.861Z,8
2016-08-05T03:18:51.795Z,8
2016-08-05T03:19:53.234Z,12
2016-08-05T03:20:52.527Z,12
2016-08-05T03:21:51.274Z,12
2016-08-05T03:22:53.264Z,16
2016-08-05T03:23:51.234Z,20
2016-08-05T03:24:53.326Z,20
2016-08-05T03:25:52.736Z,24
2016-08-05T03:26:51.223Z,24
2016-08-05T03:27:51.965Z,28
2016-08-05T03:28:52.675Z,32
2016-08-05T03:29:52.734Z,40
2016-08-05T03:30:52.736Z,44
2016-08-05T03:31:53.464Z,48
2016-08-05T03:32:52.067Z,56
2016-08-05T03:33:52.854Z,60
2016-08-05T03:34:52.918Z,68
2016-08-05T03:35:51.405Z,72
2016-08-05T03:36:53.543Z,84
2016-08-05T03:37:52.174Z,88
2016-08-05T03:38:52.869Z,96
2016-08-05T03:39:51.494Z,108
2016-08-05T03:40:52.933Z,112
2016-08-05T03:41:52.941Z,124
2016-08-05T03:42:52.943Z,132
2016-08-05T03:43:52.294Z,148
2016-08-05T03:44:52.995Z,156
2016-08-05T03:45:53.029Z,168
2016-08-05T03:46:53.037Z,180
2016-08-05T03:47:53.077Z,192
2016-08-05T03:48:52.373Z,204
2016-08-05T03:49:53.158Z,220
2016-08-05T03:50:53.116Z,236
2016-08-05T03:51:52.423Z,252
2016-08-05T03:52:53.143Z,264
2016-08-05T03:53:53.959Z,284
2016-08-05T03:54:53.913Z,300
2016-08-05T03:55:52.517Z,316
2016-08-05T03:56:53.935Z,332
2016-08-05T03:57:53.243Z,352
2016-08-05T03:58:54.121Z,364
2016-08-05T03:59:54.036Z,388
2016-08-05T04:00:53.315Z,404
2016-08-05T04:01:54.037Z,424
2016-08-05T04:02:53.375Z,440
2016-08-05T04:03:53.377Z,464
2016-08-05T04:04:53.397Z,488
2016-08-05T04:05:54.137Z,516
2016-08-05T04:06:53.449Z,552
2016-08-05T04:07:52.862Z,596
2016-08-05T04:08:54.188Z,640
2016-08-05T04:09:54.218Z,672
2016-08-05T04:10:53.070Z,696
2016-08-05T04:11:54.348Z,740
2016-08-05T04:12:54.271Z,792
2016-08-05T04:13:54.392Z,820
2016-08-05T04:14:54.297Z,860
2016-08-05T04:15:53.603Z,920
2016-08-05T04:16:53.034Z,980
2016-08-05T04:17:54.460Z,1060
2016-08-05T04:18:53.676Z,1124
2016-08-05T04:19:53.692Z,1176
2016-08-05T04:20:53.700Z,1216
2016-08-05T04:21:53.742Z,1260
2016-08-05T04:22:53.731Z,1288
2016-08-05T04:23:53.772Z,1300
2016-08-05T04:24:53.803Z,1320
2016-08-05T04:26:53.906Z,1352
2016-08-05T04:27:54.552Z,1404
2016-08-05T04:28:53.864Z,1440
2016-08-05T04:29:53.880Z,1440
2016-08-05T04:30:53.210Z,1448
2016-08-05T04:31:54.639Z,1468
2016-08-05T04:32:53.950Z,1492
2016-08-05T04:33:55.197Z,1512
2016-08-05T04:34:53.981Z,1484
2016-08-05T04:35:54.154Z,1468
2016-08-05T04:36:53.314Z,1472
2016-08-05T04:37:55.225Z,1516
2016-08-05T04:38:53.349Z,1544
2016-08-05T04:39:53.389Z,1568
2016-08-05T04:41:52.717Z,1600
2016-08-05T04:42:55.127Z,1632
2016-08-05T04:43:54.144Z,1652
2016-08-05T04:44:53.479Z,1648
2016-08-05T04:45:53.495Z,1660
2016-08-05T04:46:53.541Z,1716
2016-08-05T04:47:54.229Z,1816
2016-08-05T04:48:54.381Z,1892
2016-08-05T04:49:54.279Z,1960
2016-08-05T04:50:54.404Z,2020
2016-08-05T04:51:55.180Z,2088
2016-08-05T04:52:54.336Z,2180
2016-08-05T04:53:54.479Z,2364
2016-08-05T04:54:54.388Z,2596
2016-08-05T04:56:55.383Z,2652
2016-08-05T04:57:54.555Z,2716
2016-08-05T04:58:53.767Z,3072
2016-08-05T04:59:54.500Z,3044
2016-08-05T05:00:54.497Z,3032
2016-08-05T05:01:53.291Z,3024
2016-08-05T05:02:54.552Z,3008
2016-08-05T05:03:53.892Z,3080
2016-08-05T05:04:54.560Z,3096
2016-08-05T05:05:53.204Z,3020
2016-08-05T05:06:54.619Z,2912
2016-08-05T05:07:53.951Z,2832
2016-08-05T05:08:53.970Z,2772
2016-08-05T05:09:55.411Z,2876
2016-08-05T05:11:54.741Z,2700
2016-08-05T05:12:55.455Z,2628
2016-08-05T05:13:55.476Z,2744
2016-08-05T05:14:54.184Z,2776
2016-08-05T05:15:54.816Z,2764
2016-08-05T05:16:55.641Z,2816
2016-08-05T05:17:53.431Z,3100
2016-08-05T05:18:54.847Z,3700
2016-08-05T05:19:55.603Z,3352
2016-08-05T05:20:54.185Z,3160
2016-08-05T05:21:54.917Z,3036
2016-08-05T05:22:54.952Z,2840
2016-08-05T05:23:55.740Z,2720
2016-08-05T05:24:54.283Z,2624
2016-08-05T05:26:55.730Z,2616
2016-08-05T05:27:55.125Z,2468
2016-08-05T05:28:54.376Z,2440
2016-08-05T05:29:55.077Z,2616
2016-08-05T05:30:55.222Z,2480
2016-08-05T05:31:55.438Z,2440
2016-08-05T05:32:54.643Z,4224
2016-08-05T05:33:55.929Z,5556
2016-08-05T05:34:55.585Z,2940
2016-08-05T05:35:55.928Z,2324
2016-08-05T05:36:55.598Z,2884
2016-08-05T05:37:55.964Z,2632
2016-08-05T05:38:55.694Z,2608
2016-08-05T05:39:55.993Z,3036
2016-08-05T05:41:55.573Z,2848
2016-08-05T05:42:56.111Z,2604
2016-08-05T05:43:56.102Z,2680
2016-08-05T05:44:56.224Z,3044
2016-08-05T05:45:54.781Z,3332
2016-08-05T05:46:56.152Z,2556
2016-08-05T05:47:55.462Z,2744
2016-08-05T05:48:55.481Z,2968
2016-08-05T05:49:55.550Z,2708
2016-08-05T05:50:56.221Z,2980
2016-08-05T05:51:55.551Z,2684
2016-08-05T05:52:54.857Z,2476
2016-08-05T05:53:54.953Z,2268
2016-08-05T05:54:55.611Z,2140
2016-08-05T05:55:55.621Z,1976
2016-08-05T05:56:56.349Z,1928
2016-08-05T05:57:56.362Z,2344
2016-08-05T05:58:55.781Z,3096
2016-08-05T05:59:55.005Z,4064
2016-08-05T06:00:55.740Z,4212
2016-08-05T06:01:55.734Z,4432
2016-08-05T06:02:56.590Z,5112
2016-08-05T06:03:56.497Z,4568
2016-08-05T06:04:55.861Z,3456
2016-08-05T06:05:55.849Z,3412
2016-08-05T06:06:54.432Z,3428
2016-08-05T06:07:56.560Z,3540
2016-08-05T06:08:56.599Z,4708
2016-08-05T06:09:55.922Z,5840
2016-08-05T06:10:55.954Z,4796
2016-08-05T06:11:56.668Z,4404
2016-08-05T06:12:55.974Z,4124
2016-08-05T06:13:56.092Z,3900
2016-08-05T06:14:55.328Z,3844
2016-08-05T06:15:56.051Z,4108
2016-08-05T06:16:56.070Z,4128
2016-08-05T06:17:54.666Z,3860
2016-08-05T06:18:55.385Z,4228
2016-08-05T06:19:56.174Z,5464
2016-08-05T06:20:56.858Z,7112
2016-08-05T06:21:55.651Z,7172
2016-08-05T06:22:56.341Z,7824
2016-08-05T06:23:56.974Z,7432
2016-08-05T06:24:56.220Z,7696
2016-08-05T06:25:55.680Z,8820
2016-08-05T06:26:56.283Z,8620
2016-08-05T06:27:56.280Z,7988
2016-08-05T06:28:56.327Z,7240
2016-08-05T06:29:56.362Z,6948
2016-08-05T06:30:56.356Z,7408
2016-08-05T06:31:56.382Z,6884
2016-08-05T06:32:56.422Z,5796
2016-08-05T06:33:56.499Z,6232
2016-08-05T06:34:56.461Z,8132
2016-08-05T06:35:57.183Z,8056
2016-08-05T06:36:55.794Z,6652
2016-08-05T06:37:56.671Z,7564
2016-08-05T06:38:56.552Z,9264
2016-08-05T06:39:57.401Z,11252
2016-08-05T06:40:55.870Z,14232
2016-08-05T06:41:56.596Z,12984
2016-08-05T06:42:55.269Z,10416
2016-08-05T06:43:56.650Z,11360
2016-08-05T06:44:56.674Z,12580
2016-08-05T06:45:56.708Z,13808
2016-08-05T06:46:56.731Z,12812
2016-08-05T06:47:56.754Z,11900
2016-08-05T06:48:56.143Z,10992
2016-08-05T06:49:57.503Z,11128
2016-08-05T06:50:56.981Z,12452
2016-08-05T06:51:56.130Z,12840
2016-08-05T06:52:56.874Z,13932
2016-08-05T06:53:57.602Z,14968
2016-08-05T06:54:57.711Z,14864
2016-08-05T06:55:56.300Z,13320
2016-08-05T06:56:57.680Z,11632
2016-08-05T06:57:57.089Z,9408
2016-08-05T06:58:56.991Z,14136
2016-08-05T06:59:55.890Z,16096
2016-08-05T07:00:56.357Z,17120
2016-08-05T07:01:57.229Z,17696
2016-08-05T07:02:57.797Z,13628
2016-08-05T07:03:56.439Z,12312
2016-08-05T07:04:57.135Z,11392
2016-08-05T07:05:57.182Z,14176
2016-08-05T07:06:57.892Z,12768
2016-08-05T07:07:56.565Z,11244
2016-08-05T07:08:55.924Z,8620
2016-08-05T07:09:57.289Z,8588
2016-08-05T07:10:57.315Z,10388
2016-08-05T07:11:57.335Z,9596
2016-08-05T07:12:56.670Z,8312
2016-08-05T07:13:57.482Z,7052
2016-08-05T07:14:57.431Z,6148
2016-08-05T07:15:58.140Z,6268
2016-08-05T07:16:57.455Z,6084
2016-08-05T07:17:58.182Z,7300
2016-08-05T07:18:57.490Z,7800
2016-08-05T07:19:57.596Z,8808
2016-08-05T07:20:57.540Z,8408
2016-08-05T07:21:58.273Z,7308
2016-08-05T07:22:57.580Z,7540
2016-08-05T07:23:58.480Z,6556
2016-08-05T07:24:57.627Z,6444
2016-08-05T07:25:58.424Z,7564
2016-08-05T07:26:56.991Z,6644
2016-08-05T07:27:57.711Z,6472
2016-08-05T07:28:58.444Z,6480
2016-08-05T07:29:57.762Z,7172
2016-08-05T07:30:57.803Z,7280
2016-08-05T07:31:58.495Z,8176
2016-08-05T07:32:58.547Z,7892
2016-08-05T07:33:58.557Z,6956
2016-08-05T07:34:57.895Z,6252
2016-08-05T07:35:57.893Z,6844
2016-08-05T07:36:58.985Z,6552
2016-08-05T07:37:57.225Z,7516
2016-08-05T07:38:58.673Z,7416
2016-08-05T07:39:58.708Z,7968
2016-08-05T07:40:58.988Z,8016
2016-08-05T07:41:58.033Z,8776
2016-08-05T07:42:58.976Z,11460
2016-08-05T07:43:58.949Z,10072
2016-08-05T07:44:58.957Z,12172
2016-08-05T07:45:58.287Z,15680
2016-08-05T07:46:58.965Z,11132
2016-08-05T07:47:58.987Z,12472
2016-08-05T07:48:57.529Z,12652
2016-08-05T07:49:59.017Z,12668
2016-08-05T07:50:58.994Z,13192
2016-08-05T07:51:58.273Z,14180
2016-08-05T07:52:59.003Z,11588
2016-08-05T07:53:57.637Z,11476
2016-08-05T07:54:58.355Z,11612
2016-08-05T07:55:59.068Z,8756
2016-08-05T07:56:58.558Z,10340
2016-08-05T07:57:59.127Z,9472
2016-08-05T07:58:58.601Z,9956
2016-08-05T07:59:59.159Z,10504
2016-08-05T08:00:59.222Z,11480
2016-08-05T08:01:59.384Z,10480
2016-08-05T08:02:59.256Z,15144
2016-08-05T08:03:58.565Z,15460
2016-08-05T08:04:58.587Z,21632
2016-08-05T08:05:58.623Z,26560
2016-08-05T08:06:58.643Z,15936
2016-08-05T08:07:59.623Z,15372
2016-08-05T08:08:57.979Z,13296
2016-08-05T08:09:58.757Z,12496
2016-08-05T08:10:59.434Z,11012
2016-08-05T08:11:58.776Z,11516
2016-08-05T08:12:59.482Z,13768
2016-08-05T08:13:59.505Z,13424
2016-08-05T08:14:58.121Z,13576
2016-08-05T08:15:58.847Z,15288
2016-08-05T08:16:59.586Z,11232
2016-08-05T08:17:58.907Z,12152
2016-08-05T08:18:59.151Z,11924
2016-08-05T08:19:58.957Z,15060
2016-08-05T08:20:59.735Z,12840
2016-08-05T08:21:58.474Z,13552
2016-08-05T08:22:59.793Z,12380
2016-08-05T08:23:59.747Z,14524
2016-08-05T08:24:58.467Z,13120
2016-08-05T08:25:57.690Z,14788
2016-08-05T08:26:59.147Z,20608
2016-08-05T08:27:59.287Z,18944
2016-08-05T08:28:58.516Z,16576
2016-08-05T08:29:59.943Z,16736
2016-08-05T08:30:59.943Z,12264
2016-08-05T08:31:59.267Z,14676
2016-08-05T08:32:58.620Z,14800
2016-08-05T08:33:59.340Z,15712
2016-08-05T08:34:59.467Z,17056
2016-08-05T08:35:59.362Z,13276
2016-08-05T08:36:58.778Z,11916
2016-08-05T08:37:58.695Z,10232
2016-08-05T08:38:59.521Z,12040
2016-08-05T08:39:59.467Z,15032
2016-08-05T08:40:58.798Z,13288
2016-08-05T08:42:00.216Z,12476
2016-08-05T08:42:58.840Z,10232
2016-08-05T08:44:00.273Z,10620
2016-08-05T08:45:00.302Z,11880
2016-08-05T08:45:59.595Z,15648
2016-08-05T08:46:59.625Z,12544
2016-08-05T08:47:59.647Z,11656
2016-08-05T08:49:00.447Z,10996
2016-08-05T08:49:59.733Z,11232
2016-08-05T08:50:59.733Z,13464
2016-08-05T08:51:59.764Z,10548
2016-08-05T08:53:00.485Z,8988
2016-08-05T08:53:58.418Z,9140
2016-08-05T08:54:59.845Z,10652
2016-08-05T08:56:00.687Z,12320
2016-08-05T08:57:00.617Z,14640
2016-08-05T08:57:59.314Z,14108
2016-08-05T08:59:00.658Z,18368
2016-08-05T09:00:00.722Z,18592
2016-08-05T09:00:59.305Z,19744
2016-08-05T09:01:59.442Z,18784
2016-08-05T09:02:58.755Z,16352
2016-08-05T09:04:00.797Z,14992
2016-08-05T09:04:59.393Z,19200
2016-08-05T09:06:00.845Z,20704
2016-08-05T09:07:00.155Z,20928
2016-08-05T09:08:00.883Z,23872
2016-08-05T09:09:00.954Z,22400
2016-08-05T09:10:00.327Z,22144
2016-08-05T09:11:00.298Z,21856
2016-08-05T09:11:58.945Z,21728
2016-08-05T09:13:01.087Z,21280
2016-08-05T09:14:00.460Z,19264
2016-08-05T09:15:00.372Z,18080
2016-08-05T09:15:59.717Z,17760
2016-08-05T09:17:00.445Z,19040
2016-08-05T09:18:01.177Z,20960
2016-08-05T09:18:59.776Z,22336
2016-08-05T09:20:01.201Z,20928
2016-08-05T09:21:00.534Z,19168
2016-08-05T09:21:59.928Z,19456
2016-08-05T09:23:01.305Z,16544
2016-08-05T09:24:01.357Z,17248
2016-08-05T09:25:01.335Z,18432
2016-08-05T09:26:01.366Z,15404
2016-08-05T09:27:00.745Z,16032
2016-08-05T09:28:01.415Z,17312
2016-08-05T09:29:01.507Z,18528
2016-08-05T09:30:00.069Z,19808
2016-08-05T09:31:00.818Z,19776
2016-08-05T09:32:00.917Z,16992
2016-08-05T09:33:00.869Z,18944
2016-08-05T09:34:01.704Z,20384
2016-08-05T09:35:00.906Z,19168
2016-08-05T09:36:01.735Z,17120
2016-08-05T09:37:00.251Z,18528
2016-08-05T09:38:01.754Z,18240
2016-08-05T09:39:01.020Z,17984
2016-08-05T09:40:00.347Z,19136
2016-08-05T09:41:01.794Z,19392
2016-08-05T09:42:00.476Z,17184
2016-08-05T09:43:00.421Z,16480
2016-08-05T09:44:01.896Z,17760
2016-08-05T09:45:01.197Z,16960
2016-08-05T09:46:00.520Z,19168
2016-08-05T09:47:01.224Z,21312
2016-08-05T09:48:00.554Z,19328
2016-08-05T09:49:02.026Z,18752
2016-08-05T09:50:00.626Z,18048
2016-08-05T09:51:02.092Z,17920
2016-08-05T09:52:00.827Z,18016
2016-08-05T09:53:02.111Z,16416
2016-08-05T09:54:00.023Z,16128
2016-08-05T09:55:01.494Z,16480
2016-08-05T09:56:02.201Z,15080
2016-08-05T09:57:00.112Z,16736
2016-08-05T09:58:02.286Z,17440
2016-08-05T09:59:02.313Z,17184
2016-08-05T10:00:00.892Z,17216
2016-08-05T10:01:02.364Z,15584
2016-08-05T10:02:02.379Z,14084
2016-08-05T10:03:02.621Z,15104
2016-08-05T10:04:01.945Z,16608
2016-08-05T10:05:02.137Z,16928
2016-08-05T10:06:01.055Z,18336
2016-08-05T10:07:02.162Z,17280
2016-08-05T10:08:01.966Z,17280
2016-08-05T10:09:01.454Z,17120
2016-08-05T10:10:02.655Z,17152
2016-08-05T10:11:01.202Z,17984
2016-08-05T10:12:02.691Z,19136
2016-08-05T10:13:01.265Z,19360
2016-08-05T10:14:02.006Z,18752
2016-08-05T10:15:02.136Z,19552
2016-08-05T10:16:02.066Z,18048
2016-08-05T10:17:01.427Z,17472
2016-08-05T10:18:01.413Z,17472
2016-08-05T10:19:01.426Z,15872
2016-08-05T10:20:02.215Z,13892
2016-08-05T10:21:01.502Z,13984
2016-08-05T10:22:01.506Z,14804
2016-08-05T10:23:01.654Z,17888
2016-08-05T10:24:02.275Z,19264
2016-08-05T10:25:01.619Z,16416
2016-08-05T10:26:01.635Z,14796
2016-08-05T10:27:03.255Z,15204
2016-08-05T10:28:01.694Z,15672
2016-08-05T10:29:02.474Z,15580
2016-08-05T10:30:03.154Z,15508
2016-08-05T10:31:02.506Z,16192
2016-08-05T10:32:02.506Z,16352
2016-08-05T10:33:03.224Z,16128
2016-08-05T10:34:02.352Z,16064
2016-08-05T10:35:02.082Z,14400
2016-08-05T10:36:02.910Z,13452
2016-08-05T10:37:03.355Z,13236
2016-08-05T10:38:02.966Z,13172
2016-08-05T10:39:02.076Z,13184
2016-08-05T10:40:01.456Z,13208
2016-08-05T10:41:03.458Z,13132
2016-08-05T10:42:03.519Z,13236
2016-08-05T10:43:03.548Z,13328
2016-08-05T10:44:02.138Z,13628
2016-08-05T10:45:03.575Z,14124
2016-08-05T10:46:02.181Z,14764
2016-08-05T10:47:02.372Z,16032
2016-08-05T10:48:02.953Z,16352
2016-08-05T10:49:03.087Z,13764
2016-08-05T10:50:03.008Z,12288
2016-08-05T10:51:03.032Z,12088
2016-08-05T10:52:03.074Z,12616
2016-08-05T10:53:03.212Z,12924
2016-08-05T10:54:03.132Z,12508
2016-08-05T10:55:03.924Z,12552
2016-08-05T10:56:03.883Z,12948
2016-08-05T10:57:03.454Z,13872
2016-08-05T10:58:03.251Z,14812
2016-08-05T10:59:03.262Z,15412
2016-08-05T11:00:03.379Z,15272
2016-08-05T11:01:03.314Z,14568
2016-08-05T11:02:01.921Z,14580
2016-08-05T11:03:03.362Z,15388
2016-08-05T11:04:03.412Z,16800
2016-08-05T11:05:02.733Z,17504
2016-08-05T11:06:03.493Z,16960
2016-08-05T11:07:04.181Z,15456
2016-08-05T11:08:03.500Z,14136
2016-08-05T11:09:03.551Z,14260
2016-08-05T11:10:03.560Z,16320
2016-08-05T11:11:03.653Z,16288
2016-08-05T11:12:03.183Z,14776
2016-08-05T11:13:03.662Z,13800
2016-08-05T11:14:03.679Z,12600
2016-08-05T11:15:04.432Z,13108
2016-08-05T11:16:03.030Z,14560
2016-08-05T11:17:03.763Z,12864
2016-08-05T11:18:04.494Z,12176
2016-08-05T11:19:03.110Z,11768
2016-08-05T11:20:04.662Z,12516
2016-08-05T11:21:04.588Z,13760
2016-08-05T11:22:04.812Z,14588
2016-08-05T11:23:04.642Z,15464
2016-08-05T11:24:03.963Z,14264
2016-08-05T11:25:03.275Z,12452
2016-08-05T11:26:04.041Z,11192
2016-08-05T11:27:03.586Z,10748
2016-08-05T11:28:04.821Z,10760
2016-08-05T11:29:04.091Z,10832
2016-08-05T11:30:04.843Z,10348
2016-08-05T11:31:04.226Z,10552
2016-08-05T11:32:02.782Z,10864
2016-08-05T11:33:04.936Z,10560
2016-08-05T11:34:04.277Z,10072
2016-08-05T11:35:04.275Z,9900
2016-08-05T11:36:04.995Z,9796
2016-08-05T11:37:04.342Z,9636
2016-08-05T11:38:03.662Z,9676
2016-08-05T11:39:04.372Z,9148
2016-08-05T11:40:04.548Z,8928
2016-08-05T11:41:05.417Z,9188
2016-08-05T11:42:05.752Z,9708
2016-08-05T11:43:04.479Z,9844
2016-08-05T11:44:05.261Z,9328
2016-08-05T11:45:03.932Z,8952
2016-08-05T11:46:03.877Z,8648
2016-08-05T11:47:04.602Z,8628
2016-08-05T11:48:03.908Z,9332
2016-08-05T11:49:04.691Z,10320
2016-08-05T11:50:04.762Z,11168
2016-08-05T11:51:05.419Z,11492
2016-08-05T11:52:05.449Z,11752
2016-08-05T11:53:05.471Z,12332
2016-08-05T11:54:05.493Z,12908
2016-08-05T11:55:04.803Z,12964
2016-08-05T11:56:04.879Z,13368
2016-08-05T11:58:04.191Z,13012
2016-08-05T11:59:04.234Z,12868
2016-08-05T12:00:04.976Z,12632
2016-08-05T12:01:04.991Z,12452
2016-08-05T12:02:05.804Z,11260
2016-08-05T12:03:04.322Z,11604
2016-08-05T12:04:05.774Z,12472
2016-08-05T12:05:05.789Z,14196
2016-08-05T12:06:05.835Z,15904
2016-08-05T12:07:04.446Z,15616
2016-08-05T12:08:05.159Z,14820
2016-08-05T12:09:05.190Z,13088
2016-08-05T12:10:05.225Z,12260
2016-08-05T12:11:05.379Z,10652
2016-08-05T12:13:05.610Z,9552
2016-08-05T12:14:05.693Z,8944
2016-08-05T12:15:05.574Z,7792
2016-08-05T12:16:06.262Z,6172
2016-08-05T12:17:06.299Z,4716
2016-08-05T12:18:06.314Z,3660
2016-08-05T12:19:06.281Z,3008
2016-08-05T12:20:06.443Z,2596
2016-08-05T12:21:06.328Z,2296
2016-08-05T12:22:05.711Z,2256
2016-08-05T12:23:05.715Z,2324
2016-08-05T12:24:06.381Z,2364
2016-08-05T12:25:06.386Z,2588
2016-08-05T12:26:05.733Z,2916
2016-08-05T12:27:06.387Z,3136
2016-08-05T12:28:06.432Z,3508
2016-08-05T12:29:05.878Z,4120
2016-08-05T12:30:06.494Z,4992
2016-08-05T12:31:05.962Z,5920
2016-08-05T12:32:06.553Z,6580
2016-08-05T12:33:06.892Z,6824
2016-08-05T12:34:06.636Z,6908
2016-08-05T12:35:05.990Z,6584
2016-08-05T12:36:05.927Z,6024
2016-08-05T12:37:06.711Z,5848
2016-08-05T12:38:06.699Z,5764
2016-08-05T12:39:05.299Z,5492
2016-08-05T12:40:06.802Z,5380
2016-08-05T12:41:06.752Z,5492
2016-08-05T12:42:05.383Z,5736
2016-08-05T12:43:06.812Z,5984
2016-08-05T12:44:06.825Z,6236
2016-08-05T12:45:06.150Z,6664
2016-08-05T12:46:06.883Z,7192
2016-08-05T12:47:06.205Z,7712
2016-08-05T12:48:07.034Z,8200
2016-08-05T12:49:06.264Z,8700
2016-08-05T12:50:07.231Z,9220
2016-08-05T12:51:07.013Z,9676
2016-08-05T12:52:07.038Z,10020
2016-08-05T12:53:06.363Z,10308
2016-08-05T12:54:06.383Z,10492
2016-08-05T12:55:07.100Z,10552
2016-08-05T12:56:07.118Z,10508
2016-08-05T12:57:06.495Z,10400
2016-08-05T12:58:07.164Z,10308
2016-08-05T12:59:07.265Z,10248
2016-08-05T13:00:07.210Z,10348
2016-08-05T13:01:07.342Z,10688
2016-08-05T13:02:06.557Z,11272
2016-08-05T13:03:06.572Z,12016
2016-08-05T13:04:07.478Z,12808
2016-08-05T13:05:07.361Z,13424
2016-08-05T13:06:07.358Z,13920
2016-08-05T13:07:06.686Z,14212
2016-08-05T13:08:05.331Z,14220
2016-08-05T13:09:06.742Z,13996
2016-08-05T13:10:06.753Z,13636
2016-08-05T13:11:06.783Z,13160
2016-08-05T13:12:06.814Z,12616
2016-08-05T13:13:07.531Z,12068
2016-08-05T13:14:06.857Z,11584
2016-08-05T13:15:07.583Z,10928
2016-08-05T13:16:06.908Z,10292
2016-08-05T13:17:07.627Z,9716
2016-08-05T13:18:07.671Z,9292
2016-08-05T13:19:07.720Z,9064
2016-08-05T13:20:07.002Z,9016
2016-08-05T13:21:07.725Z,9144
2016-08-05T13:22:07.072Z,9416
2016-08-05T13:23:07.139Z,9824
2016-08-05T13:24:07.832Z,10344
2016-08-05T13:25:07.107Z,10888
2016-08-05T13:26:06.430Z,11416
2016-08-05T13:27:07.162Z,11900
2016-08-05T13:28:08.124Z,12364
2016-08-05T13:29:07.212Z,12728
2016-08-05T13:30:07.274Z,12988
2016-08-05T13:31:08.134Z,13184
2016-08-05T13:32:07.347Z,13312
2016-08-05T13:33:08.153Z,13444
2016-08-05T13:34:07.361Z,13268
2016-08-05T13:35:07.375Z,12592
2016-08-05T13:36:08.191Z,11564
2016-08-05T13:37:06.711Z,10608
2016-08-05T13:38:08.165Z,9876
2016-08-05T13:39:08.198Z,9176
2016-08-05T13:40:08.222Z,8452